Impacts TAF Board
For situational awareness. Not to be used for flight planning purposes.
IDs:

KFLL - Ft Lauderdale-Hollyw, FL, US

Issued at 0530 UTC 23 Feb 2019
Updated at 0635 UTC 23 Feb 2019
Potential Impact None Slight Moderate High
Time0553Z 23/07Z 23/08Z 23/09Z 23/10Z 23/11Z 23/12Z 23/13Z 23/14Z 23/15Z 23/16Z 23/17Z 23/18Z 23/19Z>>
Type OBS PRVL PRVL PRVL PRVL PRVL PRVL PRVL PRVL PRVL PRVL PRVL PRVL PRVL
VIS 10 >6 >6 >6 >6 >6 >6 >6 >6 >6 >6 >6 >6 >6
CIG 75 -- -- -- -- -- -- -- -- -- -- -- -- --
Cover BKN SCT SCT SCT SCT SCT SCT SCT SCT SCT SCT SCT SCT SCT
FltCat VFR VFR VFR VFR VFR VFR VFR VFR VFR VFR VFR VFR VFR VFR
WX -- -- -- -- -- -- -- -- -- -- -- -- -- --
WDir 130 120 120 120 120 120 120 130 130 130 130 130 130 130
WSpd 8 9 9 9 9 9 9 12 12 12 12 12 12 12
WGst -- -- -- -- -- -- -- 20 20 20 20 20 20 20
Raw TAF
KFLL 230530Z 2306/2412 12009KT P6SM SCT020
  FM231300 13012G20KT P6SM SCT025 SCT050
  FM240200 14010KT P6SM SCT025


Raw METAR
KFLL 230553Z 13008KT 10SM FEW024 BKN075 26/24 A3013 RMK AO2 SLP203 60000 T02560244 10261 20250 58008
KFLL 230453Z 12011KT 10SM FEW015 SCT070 26/24 A3014 RMK AO2 SLP206 T02560244 402830239
KFLL 230358Z 12010KT 10SM SCT015 SCT070 26/25 A3015 RMK AO2 T02560250
KFLL 230353Z 12011KT 10SM BKN015 BKN070 26/25 A3015 RMK AO2 SLP210 T02560250
KFLL 230345Z 10009KT 10SM BKN015 BKN070 26/24 A3015 RMK AO2 T02560244

METAR Board
Radar Display
Forecast Discussion
For situational awareness. Not to be used for flight planning purposes.